sensor_id;sensor_type;location;lat;lon;timestamp;P1;durP1;ratioP1;P2;durP2;ratioP2
5898;SDS011;2975;50.956;6.962;2024-01-07T00:01:00;28.10;;;14.87;;
5898;SDS011;2975;50.956;6.962;2024-01-07T00:03:25;24.60;;;14.57;;
5898;SDS011;2975;50.956;6.962;2024-01-07T00:05:51;26.10;;;14.77;;
5898;SDS011;2975;50.956;6.962;2024-01-07T00:08:16;24.80;;;13.73;;
5898;SDS011;2975;50.956;6.962;2024-01-07T00:10:42;24.53;;;13.40;;
5898;SDS011;2975;50.956;6.962;2024-01-07T00:13:08;24.47;;;13.90;;
5898;SDS011;2975;50.956;6.962;2024-01-07T00:15:33;24.53;;;13.27;;
5898;SDS011;2975;50.956;6.962;2024-01-07T00:17:59;27.50;;;13.33;;
5898;SDS011;2975;50.956;6.962;2024-01-07T00:20:24;23.83;;;12.77;;
5898;SDS011;2975;50.956;6.962;2024-01-07T00:22:50;24.73;;;14.57;;
5898;SDS011;2975;50.956;6.962;2024-01-07T00:25:15;26.30;;;13.77;;
5898;SDS011;2975;50.956;6.962;2024-01-07T00:27:43;23.50;;;12.23;;
5898;SDS011;2975;50.956;6.962;2024-01-07T00:30:09;22.93;;;13.30;;
5898;SDS011;2975;50.956;6.962;2024-01-07T00:32:35;22.40;;;12.30;;
5898;SDS011;2975;50.956;6.962;2024-01-07T00:35:01;24.07;;;12.90;;
5898;SDS011;2975;50.956;6.962;2024-01-07T00:37:27;19.63;;;11.20;;
5898;SDS011;2975;50.956;6.962;2024-01-07T00:39:52;20.33;;;10.93;;
5898;SDS011;2975;50.956;6.962;2024-01-07T00:42:18;19.27;;;11.07;;
5898;SDS011;2975;50.956;6.962;2024-01-07T00:44:43;21.03;;;12.27;;
5898;SDS011;2975;50.956;6.962;2024-01-07T00:47:09;22.60;;;11.80;;
5898;SDS011;2975;50.956;6.962;2024-01-07T00:49:34;23.67;;;12.93;;
5898;SDS011;2975;50.956;6.962;2024-01-07T00:52:00;19.27;;;11.23;;
5898;SDS011;2975;50.956;6.962;2024-01-07T00:54:26;18.93;;;11.10;;
5898;SDS011;2975;50.956;6.962;2024-01-07T00:56:51;20.77;;;11.60;;
5898;SDS011;2975;50.956;6.962;2024-01-07T00:59:17;18.73;;;10.87;;
5898;SDS011;2975;50.956;6.962;2024-01-07T01:01:42;19.60;;;10.47;;
5898;SDS011;2975;50.956;6.962;2024-01-07T01:04:08;18.13;;;10.63;;
5898;SDS011;2975;50.956;6.962;2024-01-07T01:06:34;19.27;;;10.90;;
5898;SDS011;2975;50.956;6.962;2024-01-07T01:08:59;18.70;;;10.40;;
5898;SDS011;2975;50.956;6.962;2024-01-07T01:11:25;18.30;;;10.40;;
5898;SDS011;2975;50.956;6.962;2024-01-07T01:13:50;18.37;;;10.57;;
5898;SDS011;2975;50.956;6.962;2024-01-07T01:16:16;18.03;;;10.47;;
5898;SDS011;2975;50.956;6.962;2024-01-07T01:18:41;20.73;;;10.50;;
5898;SDS011;2975;50.956;6.962;2024-01-07T01:21:07;17.87;;;9.70;;
5898;SDS011;2975;50.956;6.962;2024-01-07T01:23:33;15.30;;;9.13;;
5898;SDS011;2975;50.956;6.962;2024-01-07T01:25:58;14.53;;;8.80;;
5898;SDS011;2975;50.956;6.962;2024-01-07T01:28:24;14.97;;;8.90;;
5898;SDS011;2975;50.956;6.962;2024-01-07T01:30:49;13.73;;;8.50;;
5898;SDS011;2975;50.956;6.962;2024-01-07T01:33:15;15.93;;;9.10;;
5898;SDS011;2975;50.956;6.962;2024-01-07T01:35:41;13.13;;;8.60;;
5898;SDS011;2975;50.956;6.962;2024-01-07T01:38:06;13.53;;;8.57;;
5898;SDS011;2975;50.956;6.962;2024-01-07T01:40:32;13.83;;;7.87;;
5898;SDS011;2975;50.956;6.962;2024-01-07T01:42:58;15.73;;;9.20;;
5898;SDS011;2975;50.956;6.962;2024-01-07T01:45:23;13.60;;;8.87;;
5898;SDS011;2975;50.956;6.962;2024-01-07T01:47:49;16.20;;;9.00;;
5898;SDS011;2975;50.956;6.962;2024-01-07T01:50:15;14.03;;;8.37;;
5898;SDS011;2975;50.956;6.962;2024-01-07T01:52:42;14.30;;;8.87;;
5898;SDS011;2975;50.956;6.962;2024-01-07T01:55:09;13.97;;;8.73;;
5898;SDS011;2975;50.956;6.962;2024-01-07T01:57:35;14.77;;;9.27;;
5898;SDS011;2975;50.956;6.962;2024-01-07T02:00:03;16.40;;;9.43;;
5898;SDS011;2975;50.956;6.962;2024-01-07T02:02:30;15.43;;;8.73;;
5898;SDS011;2975;50.956;6.962;2024-01-07T02:04:59;16.13;;;9.17;;
5898;SDS011;2975;50.956;6.962;2024-01-07T02:07:28;14.13;;;8.47;;
5898;SDS011;2975;50.956;6.962;2024-01-07T02:09:55;11.20;;;7.57;;
5898;SDS011;2975;50.956;6.962;2024-01-07T02:12:21;13.83;;;8.03;;
5898;SDS011;2975;50.956;6.962;2024-01-07T02:14:47;13.87;;;8.27;;
5898;SDS011;2975;50.956;6.962;2024-01-07T02:17:12;14.10;;;9.17;;
5898;SDS011;2975;50.956;6.962;2024-01-07T02:19:39;14.87;;;8.97;;
5898;SDS011;2975;50.956;6.962;2024-01-07T02:22:05;14.33;;;8.67;;
5898;SDS011;2975;50.956;6.962;2024-01-07T02:24:30;14.47;;;9.00;;
5898;SDS011;2975;50.956;6.962;2024-01-07T02:26:57;15.17;;;9.10;;
5898;SDS011;2975;50.956;6.962;2024-01-07T02:29:27;13.30;;;8.53;;
5898;SDS011;2975;50.956;6.962;2024-01-07T02:31:53;14.10;;;8.73;;
5898;SDS011;2975;50.956;6.962;2024-01-07T02:34:18;15.27;;;8.73;;
5898;SDS011;2975;50.956;6.962;2024-01-07T02:36:44;16.07;;;9.80;;
5898;SDS011;2975;50.956;6.962;2024-01-07T02:39:09;14.87;;;8.93;;
5898;SDS011;2975;50.956;6.962;2024-01-07T02:41:35;13.60;;;8.67;;
5898;SDS011;2975;50.956;6.962;2024-01-07T02:44:00;13.83;;;8.97;;
5898;SDS011;2975;50.956;6.962;2024-01-07T02:46:26;15.03;;;9.87;;
5898;SDS011;2975;50.956;6.962;2024-01-07T02:48:52;18.50;;;9.83;;
5898;SDS011;2975;50.956;6.962;2024-01-07T02:51:20;17.97;;;10.27;;
5898;SDS011;2975;50.956;6.962;2024-01-07T02:53:50;15.37;;;9.40;;
5898;SDS011;2975;50.956;6.962;2024-01-07T02:56:16;17.80;;;9.93;;
5898;SDS011;2975;50.956;6.962;2024-01-07T02:58:42;18.27;;;10.63;;
5898;SDS011;2975;50.956;6.962;2024-01-07T03:01:10;17.17;;;10.17;;
5898;SDS011;2975;50.956;6.962;2024-01-07T03:03:36;17.17;;;11.10;;
5898;SDS011;2975;50.956;6.962;2024-01-07T03:06:02;22.07;;;11.80;;
5898;SDS011;2975;50.956;6.962;2024-01-07T03:08:28;16.33;;;9.60;;
5898;SDS011;2975;50.956;6.962;2024-01-07T03:10:54;17.90;;;11.03;;
5898;SDS011;2975;50.956;6.962;2024-01-07T03:13:19;18.70;;;11.43;;
5898;SDS011;2975;50.956;6.962;2024-01-07T03:15:45;18.80;;;10.83;;
5898;SDS011;2975;50.956;6.962;2024-01-07T03:18:11;19.17;;;11.23;;
5898;SDS011;2975;50.956;6.962;2024-01-07T03:20:36;18.63;;;11.43;;
5898;SDS011;2975;50.956;6.962;2024-01-07T03:23:02;19.13;;;11.80;;
5898;SDS011;2975;50.956;6.962;2024-01-07T03:25:28;20.13;;;10.90;;
5898;SDS011;2975;50.956;6.962;2024-01-07T03:27:53;21.07;;;11.40;;
5898;SDS011;2975;50.956;6.962;2024-01-07T03:30:19;19.80;;;12.13;;
5898;SDS011;2975;50.956;6.962;2024-01-07T03:32:44;18.63;;;12.07;;
5898;SDS011;2975;50.956;6.962;2024-01-07T03:35:10;18.77;;;11.77;;
5898;SDS011;2975;50.956;6.962;2024-01-07T03:37:36;22.33;;;12.60;;
5898;SDS011;2975;50.956;6.962;2024-01-07T03:40:02;24.87;;;13.27;;
5898;SDS011;2975;50.956;6.962;2024-01-07T03:42:28;23.57;;;13.57;;
5898;SDS011;2975;50.956;6.962;2024-01-07T03:44:53;21.60;;;13.20;;
5898;SDS011;2975;50.956;6.962;2024-01-07T03:47:19;24.97;;;14.33;;
5898;SDS011;2975;50.956;6.962;2024-01-07T03:49:44;25.63;;;15.03;;
5898;SDS011;2975;50.956;6.962;2024-01-07T03:52:10;27.80;;;15.87;;
5898;SDS011;2975;50.956;6.962;2024-01-07T03:54:36;27.83;;;15.53;;
5898;SDS011;2975;50.956;6.962;2024-01-07T03:57:01;26.93;;;14.90;;
5898;SDS011;2975;50.956;6.962;2024-01-07T03:59:27;28.80;;;16.00;;
5898;SDS011;2975;50.956;6.962;2024-01-07T04:01:54;26.53;;;14.10;;
5898;SDS011;2975;50.956;6.962;2024-01-07T04:04:20;27.73;;;14.37;;
5898;SDS011;2975;50.956;6.962;2024-01-07T04:06:46;25.87;;;13.67;;
5898;SDS011;2975;50.956;6.962;2024-01-07T04:09:12;25.90;;;14.77;;
5898;SDS011;2975;50.956;6.962;2024-01-07T04:11:41;26.87;;;15.30;;
5898;SDS011;2975;50.956;6.962;2024-01-07T04:14:07;26.33;;;15.30;;
5898;SDS011;2975;50.956;6.962;2024-01-07T04:16:33;26.80;;;14.40;;
5898;SDS011;2975;50.956;6.962;2024-01-07T04:18:59;26.87;;;14.67;;
5898;SDS011;2975;50.956;6.962;2024-01-07T04:21:25;26.70;;;14.10;;
5898;SDS011;2975;50.956;6.962;2024-01-07T04:23:51;27.30;;;15.03;;
5898;SDS011;2975;50.956;6.962;2024-01-07T04:26:16;23.90;;;13.30;;
5898;SDS011;2975;50.956;6.962;2024-01-07T04:28:42;22.50;;;12.23;;
5898;SDS011;2975;50.956;6.962;2024-01-07T04:31:08;24.17;;;13.47;;
5898;SDS011;2975;50.956;6.962;2024-01-07T04:33:34;22.67;;;11.93;;
5898;SDS011;2975;50.956;6.962;2024-01-07T04:36:00;22.80;;;12.33;;
5898;SDS011;2975;50.956;6.962;2024-01-07T04:38:26;22.73;;;12.47;;
5898;SDS011;2975;50.956;6.962;2024-01-07T04:40:52;20.90;;;11.43;;
5898;SDS011;2975;50.956;6.962;2024-01-07T04:43:18;17.70;;;11.13;;
5898;SDS011;2975;50.956;6.962;2024-01-07T04:45:44;19.57;;;11.07;;
5898;SDS011;2975;50.956;6.962;2024-01-07T04:48:10;19.47;;;10.60;;
5898;SDS011;2975;50.956;6.962;2024-01-07T04:50:36;17.27;;;10.00;;
5898;SDS011;2975;50.956;6.962;2024-01-07T04:53:01;20.67;;;11.67;;
5898;SDS011;2975;50.956;6.962;2024-01-07T04:55:27;19.47;;;10.90;;
5898;SDS011;2975;50.956;6.962;2024-01-07T04:57:54;19.07;;;10.40;;
5898;SDS011;2975;50.956;6.962;2024-01-07T05:00:20;18.93;;;11.43;;
5898;SDS011;2975;50.956;6.962;2024-01-07T05:02:46;19.93;;;11.00;;
5898;SDS011;2975;50.956;6.962;2024-01-07T05:05:12;20.33;;;11.87;;
5898;SDS011;2975;50.956;6.962;2024-01-07T05:07:37;21.67;;;11.77;;
5898;SDS011;2975;50.956;6.962;2024-01-07T05:10:03;22.07;;;12.90;;
5898;SDS011;2975;50.956;6.962;2024-01-07T05:12:30;21.27;;;12.17;;
5898;SDS011;2975;50.956;6.962;2024-01-07T05:14:55;24.43;;;12.67;;
5898;SDS011;2975;50.956;6.962;2024-01-07T05:17:21;22.07;;;12.63;;
5898;SDS011;2975;50.956;6.962;2024-01-07T05:19:47;22.67;;;13.13;;
5898;SDS011;2975;50.956;6.962;2024-01-07T05:22:12;23.37;;;12.73;;
5898;SDS011;2975;50.956;6.962;2024-01-07T05:24:38;19.10;;;11.27;;
5898;SDS011;2975;50.956;6.962;2024-01-07T05:27:04;21.03;;;11.87;;
5898;SDS011;2975;50.956;6.962;2024-01-07T05:29:30;19.87;;;11.87;;
5898;SDS011;2975;50.956;6.962;2024-01-07T05:31:58;21.10;;;11.63;;
5898;SDS011;2975;50.956;6.962;2024-01-07T05:34:26;19.93;;;11.27;;
5898;SDS011;2975;50.956;6.962;2024-01-07T05:36:52;17.77;;;10.70;;
5898;SDS011;2975;50.956;6.962;2024-01-07T05:39:18;18.50;;;11.37;;
5898;SDS011;2975;50.956;6.962;2024-01-07T05:41:44;20.33;;;11.60;;
5898;SDS011;2975;50.956;6.962;2024-01-07T05:44:11;19.27;;;11.77;;
5898;SDS011;2975;50.956;6.962;2024-01-07T05:46:40;18.53;;;12.10;;
5898;SDS011;2975;50.956;6.962;2024-01-07T05:49:06;18.07;;;11.30;;
5898;SDS011;2975;50.956;6.962;2024-01-07T05:51:31;22.13;;;12.13;;
5898;SDS011;2975;50.956;6.962;2024-01-07T05:53:57;20.23;;;11.70;;
5898;SDS011;2975;50.956;6.962;2024-01-07T05:56:23;17.47;;;11.30;;
5898;SDS011;2975;50.956;6.962;2024-01-07T05:58:49;20.37;;;11.70;;
5898;SDS011;2975;50.956;6.962;2024-01-07T06:01:18;19.27;;;11.40;;
5898;SDS011;2975;50.956;6.962;2024-01-07T06:03:45;19.67;;;12.10;;
5898;SDS011;2975;50.956;6.962;2024-01-07T06:06:12;19.70;;;11.73;;
5898;SDS011;2975;50.956;6.962;2024-01-07T06:08:39;18.47;;;11.10;;
5898;SDS011;2975;50.956;6.962;2024-01-07T06:11:05;19.83;;;11.47;;
5898;SDS011;2975;50.956;6.962;2024-01-07T06:13:30;19.67;;;12.30;;
5898;SDS011;2975;50.956;6.962;2024-01-07T06:15:56;20.93;;;11.90;;
5898;SDS011;2975;50.956;6.962;2024-01-07T06:18:21;19.33;;;11.70;;
5898;SDS011;2975;50.956;6.962;2024-01-07T06:20:47;18.90;;;11.77;;
5898;SDS011;2975;50.956;6.962;2024-01-07T06:23:13;18.00;;;11.57;;
5898;SDS011;2975;50.956;6.962;2024-01-07T06:25:39;20.90;;;12.63;;
5898;SDS011;2975;50.956;6.962;2024-01-07T06:28:05;20.33;;;12.33;;
5898;SDS011;2975;50.956;6.962;2024-01-07T06:30:31;19.60;;;12.93;;
5898;SDS011;2975;50.956;6.962;2024-01-07T06:32:57;19.53;;;12.83;;
5898;SDS011;2975;50.956;6.962;2024-01-07T06:35:23;20.57;;;12.37;;
5898;SDS011;2975;50.956;6.962;2024-01-07T06:37:49;19.00;;;12.07;;
5898;SDS011;2975;50.956;6.962;2024-01-07T06:40:14;21.83;;;12.03;;
5898;SDS011;2975;50.956;6.962;2024-01-07T06:42:40;18.70;;;13.00;;
5898;SDS011;2975;50.956;6.962;2024-01-07T06:45:06;19.53;;;11.97;;
5898;SDS011;2975;50.956;6.962;2024-01-07T06:47:32;23.07;;;13.47;;
5898;SDS011;2975;50.956;6.962;2024-01-07T06:49:57;19.80;;;11.97;;
5898;SDS011;2975;50.956;6.962;2024-01-07T06:52:23;19.47;;;11.90;;
5898;SDS011;2975;50.956;6.962;2024-01-07T06:54:49;22.20;;;12.53;;
5898;SDS011;2975;50.956;6.962;2024-01-07T06:57:14;20.93;;;12.20;;
5898;SDS011;2975;50.956;6.962;2024-01-07T06:59:40;19.53;;;11.93;;
5898;SDS011;2975;50.956;6.962;2024-01-07T07:02:05;20.67;;;11.87;;
5898;SDS011;2975;50.956;6.962;2024-01-07T07:04:31;20.50;;;12.67;;
5898;SDS011;2975;50.956;6.962;2024-01-07T07:06:56;17.93;;;11.00;;
5898;SDS011;2975;50.956;6.962;2024-01-07T07:09:22;18.20;;;10.83;;
5898;SDS011;2975;50.956;6.962;2024-01-07T07:11:48;19.33;;;11.80;;
5898;SDS011;2975;50.956;6.962;2024-01-07T07:14:14;17.63;;;10.80;;
5898;SDS011;2975;50.956;6.962;2024-01-07T07:16:39;17.33;;;10.87;;
5898;SDS011;2975;50.956;6.962;2024-01-07T07:19:05;17.13;;;10.50;;
5898;SDS011;2975;50.956;6.962;2024-01-07T07:21:31;22.93;;;11.77;;
5898;SDS011;2975;50.956;6.962;2024-01-07T07:23:56;16.80;;;10.03;;
5898;SDS011;2975;50.956;6.962;2024-01-07T07:26:22;15.17;;;9.93;;
5898;SDS011;2975;50.956;6.962;2024-01-07T07:28:48;18.67;;;11.23;;
5898;SDS011;2975;50.956;6.962;2024-01-07T07:31:13;16.07;;;10.07;;
5898;SDS011;2975;50.956;6.962;2024-01-07T07:33:39;17.60;;;9.70;;
5898;SDS011;2975;50.956;6.962;2024-01-07T07:36:05;14.97;;;9.87;;
5898;SDS011;2975;50.956;6.962;2024-01-07T07:38:31;18.53;;;10.27;;
5898;SDS011;2975;50.956;6.962;2024-01-07T07:40:57;13.13;;;9.20;;
5898;SDS011;2975;50.956;6.962;2024-01-07T07:43:23;15.53;;;9.93;;
5898;SDS011;2975;50.956;6.962;2024-01-07T07:45:50;14.10;;;8.83;;
5898;SDS011;2975;50.956;6.962;2024-01-07T07:48:16;14.90;;;8.47;;
5898;SDS011;2975;50.956;6.962;2024-01-07T07:50:42;16.03;;;10.03;;
5898;SDS011;2975;50.956;6.962;2024-01-07T07:53:07;15.00;;;9.67;;
5898;SDS011;2975;50.956;6.962;2024-01-07T07:55:33;17.40;;;10.17;;
5898;SDS011;2975;50.956;6.962;2024-01-07T07:57:58;17.43;;;10.63;;
5898;SDS011;2975;50.956;6.962;2024-01-07T08:00:24;14.93;;;9.57;;
5898;SDS011;2975;50.956;6.962;2024-01-07T08:02:50;16.03;;;10.13;;
5898;SDS011;2975;50.956;6.962;2024-01-07T08:05:15;18.13;;;10.30;;
5898;SDS011;2975;50.956;6.962;2024-01-07T08:07:41;16.43;;;10.13;;
5898;SDS011;2975;50.956;6.962;2024-01-07T08:10:07;17.20;;;10.17;;
5898;SDS011;2975;50.956;6.962;2024-01-07T08:12:33;15.63;;;10.10;;
5898;SDS011;2975;50.956;6.962;2024-01-07T08:14:59;16.33;;;9.87;;
5898;SDS011;2975;50.956;6.962;2024-01-07T08:17:25;15.67;;;9.77;;
5898;SDS011;2975;50.956;6.962;2024-01-07T08:19:50;12.47;;;9.17;;
5898;SDS011;2975;50.956;6.962;2024-01-07T08:22:17;16.47;;;9.87;;
5898;SDS011;2975;50.956;6.962;2024-01-07T08:24:43;17.37;;;10.23;;
5898;SDS011;2975;50.956;6.962;2024-01-07T08:27:09;13.33;;;8.20;;
5898;SDS011;2975;50.956;6.962;2024-01-07T08:29:35;15.97;;;9.60;;
5898;SDS011;2975;50.956;6.962;2024-01-07T08:32:01;14.10;;;9.67;;
5898;SDS011;2975;50.956;6.962;2024-01-07T08:34:26;14.07;;;9.60;;
5898;SDS011;2975;50.956;6.962;2024-01-07T08:36:52;18.67;;;11.90;;
5898;SDS011;2975;50.956;6.962;2024-01-07T08:39:19;15.13;;;10.30;;
5898;SDS011;2975;50.956;6.962;2024-01-07T08:41:44;18.43;;;10.50;;
5898;SDS011;2975;50.956;6.962;2024-01-07T08:44:11;14.77;;;9.97;;
5898;SDS011;2975;50.956;6.962;2024-01-07T08:46:37;18.13;;;10.37;;
5898;SDS011;2975;50.956;6.962;2024-01-07T08:49:03;17.80;;;9.80;;
5898;SDS011;2975;50.956;6.962;2024-01-07T08:51:29;15.30;;;10.13;;
5898;SDS011;2975;50.956;6.962;2024-01-07T08:53:55;19.00;;;10.33;;
5898;SDS011;2975;50.956;6.962;2024-01-07T08:56:22;16.57;;;10.53;;
5898;SDS011;2975;50.956;6.962;2024-01-07T08:58:48;16.17;;;10.37;;
5898;SDS011;2975;50.956;6.962;2024-01-07T09:01:13;19.13;;;11.07;;
5898;SDS011;2975;50.956;6.962;2024-01-07T09:03:39;15.83;;;10.13;;
5898;SDS011;2975;50.956;6.962;2024-01-07T09:06:06;16.93;;;10.23;;
5898;SDS011;2975;50.956;6.962;2024-01-07T09:08:32;13.77;;;9.40;;
5898;SDS011;2975;50.956;6.962;2024-01-07T09:10:59;18.20;;;10.10;;
5898;SDS011;2975;50.956;6.962;2024-01-07T09:13:25;14.90;;;9.87;;
5898;SDS011;2975;50.956;6.962;2024-01-07T09:15:51;18.53;;;11.03;;
5898;SDS011;2975;50.956;6.962;2024-01-07T09:18:16;16.47;;;9.63;;
5898;SDS011;2975;50.956;6.962;2024-01-07T09:20:43;16.07;;;9.67;;
5898;SDS011;2975;50.956;6.962;2024-01-07T09:23:09;16.03;;;9.90;;
5898;SDS011;2975;50.956;6.962;2024-01-07T09:25:35;16.23;;;10.77;;
5898;SDS011;2975;50.956;6.962;2024-01-07T09:28:00;15.70;;;9.73;;
5898;SDS011;2975;50.956;6.962;2024-01-07T09:30:26;17.47;;;9.83;;
5898;SDS011;2975;50.956;6.962;2024-01-07T09:32:52;16.70;;;9.67;;
5898;SDS011;2975;50.956;6.962;2024-01-07T09:35:17;12.83;;;8.20;;
5898;SDS011;2975;50.956;6.962;2024-01-07T09:37:43;11.60;;;7.97;;
5898;SDS011;2975;50.956;6.962;2024-01-07T09:40:08;15.13;;;8.87;;
5898;SDS011;2975;50.956;6.962;2024-01-07T09:42:35;11.20;;;7.83;;
5898;SDS011;2975;50.956;6.962;2024-01-07T09:45:01;13.33;;;8.83;;
5898;SDS011;2975;50.956;6.962;2024-01-07T09:47:29;12.73;;;8.10;;
5898;SDS011;2975;50.956;6.962;2024-01-07T09:49:54;9.07;;;6.70;;
5898;SDS011;2975;50.956;6.962;2024-01-07T09:52:20;11.67;;;6.87;;
5898;SDS011;2975;50.956;6.962;2024-01-07T09:54:47;8.10;;;6.07;;
5898;SDS011;2975;50.956;6.962;2024-01-07T09:57:16;9.03;;;6.77;;
5898;SDS011;2975;50.956;6.962;2024-01-07T09:59:42;9.73;;;6.10;;
5898;SDS011;2975;50.956;6.962;2024-01-07T10:02:08;10.90;;;7.53;;
5898;SDS011;2975;50.956;6.962;2024-01-07T10:04:34;15.37;;;9.30;;
5898;SDS011;2975;50.956;6.962;2024-01-07T10:07:00;10.70;;;6.63;;
5898;SDS011;2975;50.956;6.962;2024-01-07T10:09:29;9.43;;;6.50;;
5898;SDS011;2975;50.956;6.962;2024-01-07T10:11:57;10.63;;;6.37;;
5898;SDS011;2975;50.956;6.962;2024-01-07T10:14:23;9.87;;;7.43;;
5898;SDS011;2975;50.956;6.962;2024-01-07T10:16:51;8.97;;;7.00;;
5898;SDS011;2975;50.956;6.962;2024-01-07T10:19:22;9.27;;;6.43;;
5898;SDS011;2975;50.956;6.962;2024-01-07T10:22:03;7.73;;;5.87;;
5898;SDS011;2975;50.956;6.962;2024-01-07T10:24:36;9.13;;;6.57;;
5898;SDS011;2975;50.956;6.962;2024-01-07T10:27:04;9.27;;;6.47;;
5898;SDS011;2975;50.956;6.962;2024-01-07T10:29:30;8.33;;;6.83;;
5898;SDS011;2975;50.956;6.962;2024-01-07T10:31:57;9.57;;;5.60;;
5898;SDS011;2975;50.956;6.962;2024-01-07T10:34:23;8.63;;;5.40;;
5898;SDS011;2975;50.956;6.962;2024-01-07T10:36:50;8.40;;;5.90;;
5898;SDS011;2975;50.956;6.962;2024-01-07T10:39:19;7.27;;;6.03;;
5898;SDS011;2975;50.956;6.962;2024-01-07T10:41:45;7.17;;;5.83;;
5898;SDS011;2975;50.956;6.962;2024-01-07T10:44:12;10.03;;;6.63;;
5898;SDS011;2975;50.956;6.962;2024-01-07T10:46:38;11.30;;;7.70;;
5898;SDS011;2975;50.956;6.962;2024-01-07T10:49:07;13.43;;;7.03;;
5898;SDS011;2975;50.956;6.962;2024-01-07T10:52:08;10.90;;;7.20;;
5898;SDS011;2975;50.956;6.962;2024-01-07T10:54:34;11.20;;;7.90;;
5898;SDS011;2975;50.956;6.962;2024-01-07T10:57:13;11.20;;;7.77;;
5898;SDS011;2975;50.956;6.962;2024-01-07T10:59:41;11.50;;;8.10;;
5898;SDS011;2975;50.956;6.962;2024-01-07T11:02:08;11.90;;;7.80;;
5898;SDS011;2975;50.956;6.962;2024-01-07T11:04:42;11.83;;;8.60;;
5898;SDS011;2975;50.956;6.962;2024-01-07T11:07:32;13.50;;;9.40;;
5898;SDS011;2975;50.956;6.962;2024-01-07T11:10:11;13.87;;;8.83;;
5898;SDS011;2975;50.956;6.962;2024-01-07T11:12:40;12.23;;;8.00;;
5898;SDS011;2975;50.956;6.962;2024-01-07T11:15:06;13.57;;;8.57;;
5898;SDS011;2975;50.956;6.962;2024-01-07T11:19:59;12.83;;;8.57;;
5898;SDS011;2975;50.956;6.962;2024-01-07T11:22:25;13.63;;;8.90;;
5898;SDS011;2975;50.956;6.962;2024-01-07T11:25:01;13.13;;;8.70;;
5898;SDS011;2975;50.956;6.962;2024-01-07T11:27:31;13.67;;;8.80;;
5898;SDS011;2975;50.956;6.962;2024-01-07T11:30:07;12.00;;;8.67;;
5898;SDS011;2975;50.956;6.962;2024-01-07T11:32:45;13.93;;;8.67;;
5898;SDS011;2975;50.956;6.962;2024-01-07T11:35:14;12.70;;;8.20;;
5898;SDS011;2975;50.956;6.962;2024-01-07T11:37:40;13.17;;;9.07;;
5898;SDS011;2975;50.956;6.962;2024-01-07T11:40:07;14.23;;;9.13;;
5898;SDS011;2975;50.956;6.962;2024-01-07T11:42:33;11.90;;;8.87;;
5898;SDS011;2975;50.956;6.962;2024-01-07T11:44:59;12.33;;;8.40;;
5898;SDS011;2975;50.956;6.962;2024-01-07T11:47:25;11.73;;;7.90;;
5898;SDS011;2975;50.956;6.962;2024-01-07T11:49:53;11.87;;;7.77;;
5898;SDS011;2975;50.956;6.962;2024-01-07T11:52:19;10.10;;;7.53;;
5898;SDS011;2975;50.956;6.962;2024-01-07T11:54:45;13.77;;;9.27;;
5898;SDS011;2975;50.956;6.962;2024-01-07T11:57:12;16.00;;;9.23;;
5898;SDS011;2975;50.956;6.962;2024-01-07T11:59:38;13.67;;;8.70;;
5898;SDS011;2975;50.956;6.962;2024-01-07T12:02:04;11.20;;;7.90;;
5898;SDS011;2975;50.956;6.962;2024-01-07T12:04:30;11.77;;;7.60;;
5898;SDS011;2975;50.956;6.962;2024-01-07T12:06:56;14.40;;;7.97;;
5898;SDS011;2975;50.956;6.962;2024-01-07T12:09:23;13.73;;;8.33;;
5898;SDS011;2975;50.956;6.962;2024-01-07T12:11:49;14.40;;;7.80;;
5898;SDS011;2975;50.956;6.962;2024-01-07T12:14:14;11.60;;;7.20;;
5898;SDS011;2975;50.956;6.962;2024-01-07T12:16:40;13.47;;;7.43;;
5898;SDS011;2975;50.956;6.962;2024-01-07T12:19:08;10.97;;;7.43;;
5898;SDS011;2975;50.956;6.962;2024-01-07T12:21:34;9.93;;;7.27;;
5898;SDS011;2975;50.956;6.962;2024-01-07T12:24:00;11.47;;;7.23;;
5898;SDS011;2975;50.956;6.962;2024-01-07T12:26:26;11.97;;;6.50;;
5898;SDS011;2975;50.956;6.962;2024-01-07T12:28:53;14.93;;;7.90;;
5898;SDS011;2975;50.956;6.962;2024-01-07T12:31:31;10.63;;;7.07;;
5898;SDS011;2975;50.956;6.962;2024-01-07T12:33:58;14.70;;;7.40;;
5898;SDS011;2975;50.956;6.962;2024-01-07T12:36:24;11.80;;;7.27;;
5898;SDS011;2975;50.956;6.962;2024-01-07T12:38:51;10.33;;;7.03;;
5898;SDS011;2975;50.956;6.962;2024-01-07T12:41:19;10.67;;;6.90;;
5898;SDS011;2975;50.956;6.962;2024-01-07T12:43:45;10.10;;;6.83;;
5898;SDS011;2975;50.956;6.962;2024-01-07T12:46:11;10.77;;;6.50;;
5898;SDS011;2975;50.956;6.962;2024-01-07T12:48:36;12.00;;;6.17;;
5898;SDS011;2975;50.956;6.962;2024-01-07T12:51:02;12.13;;;6.50;;
5898;SDS011;2975;50.956;6.962;2024-01-07T12:53:28;10.13;;;5.47;;
5898;SDS011;2975;50.956;6.962;2024-01-07T12:55:54;9.80;;;6.03;;
5898;SDS011;2975;50.956;6.962;2024-01-07T12:58:20;10.77;;;6.40;;
5898;SDS011;2975;50.956;6.962;2024-01-07T13:00:46;8.30;;;5.97;;
5898;SDS011;2975;50.956;6.962;2024-01-07T13:03:12;11.33;;;6.20;;
5898;SDS011;2975;50.956;6.962;2024-01-07T13:05:44;9.00;;;5.30;;
5898;SDS011;2975;50.956;6.962;2024-01-07T13:08:11;8.13;;;5.27;;
5898;SDS011;2975;50.956;6.962;2024-01-07T13:10:37;7.60;;;5.23;;
5898;SDS011;2975;50.956;6.962;2024-01-07T13:13:03;6.27;;;5.10;;
5898;SDS011;2975;50.956;6.962;2024-01-07T13:15:29;9.83;;;5.43;;
5898;SDS011;2975;50.956;6.962;2024-01-07T13:17:54;9.70;;;5.60;;
5898;SDS011;2975;50.956;6.962;2024-01-07T13:20:20;8.50;;;4.67;;
5898;SDS011;2975;50.956;6.962;2024-01-07T13:22:46;6.00;;;4.53;;
5898;SDS011;2975;50.956;6.962;2024-01-07T13:25:12;7.47;;;3.80;;
5898;SDS011;2975;50.956;6.962;2024-01-07T13:27:37;5.33;;;4.23;;
5898;SDS011;2975;50.956;6.962;2024-01-07T13:30:03;5.60;;;3.90;;
5898;SDS011;2975;50.956;6.962;2024-01-07T13:32:30;5.30;;;4.00;;
5898;SDS011;2975;50.956;6.962;2024-01-07T13:34:55;5.57;;;3.87;;
5898;SDS011;2975;50.956;6.962;2024-01-07T13:37:21;6.63;;;4.33;;
5898;SDS011;2975;50.956;6.962;2024-01-07T13:39:47;8.40;;;4.30;;
5898;SDS011;2975;50.956;6.962;2024-01-07T13:42:14;4.70;;;3.57;;
5898;SDS011;2975;50.956;6.962;2024-01-07T13:44:40;7.83;;;4.50;;
5898;SDS011;2975;50.956;6.962;2024-01-07T13:47:11;5.27;;;4.30;;
5898;SDS011;2975;50.956;6.962;2024-01-07T13:49:39;6.13;;;3.67;;
5898;SDS011;2975;50.956;6.962;2024-01-07T13:52:05;4.90;;;3.90;;
5898;SDS011;2975;50.956;6.962;2024-01-07T13:54:31;5.40;;;4.37;;
5898;SDS011;2975;50.956;6.962;2024-01-07T13:56:56;4.97;;;4.17;;
5898;SDS011;2975;50.956;6.962;2024-01-07T13:59:22;5.20;;;4.00;;
5898;SDS011;2975;50.956;6.962;2024-01-07T14:01:48;7.87;;;4.17;;
5898;SDS011;2975;50.956;6.962;2024-01-07T14:04:14;8.73;;;4.57;;
5898;SDS011;2975;50.956;6.962;2024-01-07T14:06:40;5.57;;;3.90;;
5898;SDS011;2975;50.956;6.962;2024-01-07T14:09:06;7.67;;;3.80;;
5898;SDS011;2975;50.956;6.962;2024-01-07T14:11:33;5.90;;;4.10;;
5898;SDS011;2975;50.956;6.962;2024-01-07T14:13:59;6.33;;;4.00;;
5898;SDS011;2975;50.956;6.962;2024-01-07T14:16:26;5.90;;;4.40;;
5898;SDS011;2975;50.956;6.962;2024-01-07T14:18:52;5.13;;;4.20;;
5898;SDS011;2975;50.956;6.962;2024-01-07T14:21:17;5.90;;;4.40;;
5898;SDS011;2975;50.956;6.962;2024-01-07T14:23:43;5.43;;;3.97;;
5898;SDS011;2975;50.956;6.962;2024-01-07T14:26:09;8.87;;;3.73;;
5898;SDS011;2975;50.956;6.962;2024-01-07T14:28:34;4.37;;;3.27;;
5898;SDS011;2975;50.956;6.962;2024-01-07T14:31:00;8.97;;;3.60;;
5898;SDS011;2975;50.956;6.962;2024-01-07T14:33:26;7.83;;;3.37;;
5898;SDS011;2975;50.956;6.962;2024-01-07T14:35:52;4.77;;;3.50;;
5898;SDS011;2975;50.956;6.962;2024-01-07T14:38:18;4.33;;;2.83;;
5898;SDS011;2975;50.956;6.962;2024-01-07T14:40:44;4.20;;;3.10;;
5898;SDS011;2975;50.956;6.962;2024-01-07T14:43:11;3.30;;;2.60;;
5898;SDS011;2975;50.956;6.962;2024-01-07T14:45:37;3.23;;;2.77;;
5898;SDS011;2975;50.956;6.962;2024-01-07T14:48:03;7.77;;;2.67;;
5898;SDS011;2975;50.956;6.962;2024-01-07T14:50:29;5.83;;;2.33;;
5898;SDS011;2975;50.956;6.962;2024-01-07T14:52:55;4.70;;;2.60;;
5898;SDS011;2975;50.956;6.962;2024-01-07T14:55:20;2.50;;;2.30;;